Time;durP1;ratioP1;P1;durP2;ratioP2;P2;SDS_P1;SDS_P2;PMS_P1;PMS_P2;Temp;Humidity;BMP_temperature;BMP_pressure;BME280_temperature;BME280_humidity;BME280_pressure;Samples;Min_cycle;Max_cycle;Signal;HPM_P1;HPM_P2
2023/04/20 00:01:49;;;;;;;2.90;2.70;;;8.10;1.00;;;;;;5051523;28;20515;-66
2023/04/20 00:04:14;;;;;;;3.07;2.77;;;8.00;1.00;;;;;;5052033;28;20399;-64
2023/04/20 00:06:42;;;;;;;9.67;3.60;;;8.00;1.00;;;;;;5052735;28;20543;-67
2023/04/20 00:09:09;;;;;;;2.50;2.30;;;7.90;1.00;;;;;;5051175;28;20226;-67
2023/04/20 00:11:35;;;;;;;4.67;2.97;;;7.90;1.00;;;;;;5051666;28;20408;-67
2023/04/20 00:14:01;;;;;;;4.23;3.23;;;7.90;1.00;;;;;;5051691;28;20437;-64
2023/04/20 00:16:27;;;;;;;3.07;2.87;;;7.90;1.00;;;;;;5052684;28;20445;-65
2023/04/20 00:18:53;;;;;;;8.67;2.93;;;7.90;1.00;;;;;;5051996;28;20213;-66
2023/04/20 00:21:23;;;;;;;3.00;2.70;;;7.90;1.00;;;;;;5050192;28;20233;-66
2023/04/20 00:23:49;;;;;;;2.67;2.47;;;7.90;1.00;;;;;;5054007;28;20447;-66
2023/04/20 00:26:17;;;;;;;7.73;2.87;;;7.90;1.00;;;;;;5051784;28;20421;-67
2023/04/20 00:28:43;;;;;;;2.50;2.30;;;7.90;1.00;;;;;;5051826;28;20398;-63
2023/04/20 00:31:09;;;;;;;6.73;2.30;;;7.80;1.00;;;;;;5050164;28;20433;-64
2023/04/20 00:33:35;;;;;;;3.10;2.90;;;7.90;1.00;;;;;;5053729;28;20448;-63
2023/04/20 00:36:01;;;;;;;2.90;2.70;;;7.90;1.00;;;;;;5059082;28;20420;-67
2023/04/20 00:38:27;;;;;;;5.13;2.83;;;8.00;1.00;;;;;;5054314;28;20271;-64
2023/04/20 00:40:54;;;;;;;4.83;2.70;;;8.00;1.00;;;;;;5054825;28;20421;-64
2023/04/20 00:43:20;;;;;;;2.33;2.13;;;8.00;1.00;;;;;;5055925;28;20187;-64
2023/04/20 00:45:46;;;;;;;5.17;2.83;;;8.00;1.00;;;;;;5054370;28;20425;-64
2023/04/20 00:48:12;;;;;;;2.50;2.23;;;8.00;1.00;;;;;;5059058;28;20455;-64
2023/04/20 00:50:38;;;;;;;3.10;2.67;;;8.10;1.00;;;;;;5074959;28;20182;-64
2023/04/20 00:53:05;;;;;;;2.50;2.30;;;8.10;1.00;;;;;;5059979;28;20297;-65
2023/04/20 00:55:31;;;;;;;2.77;2.30;;;8.10;1.00;;;;;;5055761;28;21045;-64
2023/04/20 00:57:57;;;;;;;3.33;2.50;;;8.10;1.00;;;;;;5055658;28;20525;-64
2023/04/20 01:00:24;;;;;;;6.13;2.47;;;8.10;1.00;;;;;;5054094;28;20179;-64
2023/04/20 01:02:50;;;;;;;3.00;1.93;;;8.10;1.00;;;;;;5063576;28;20457;-64
2023/04/20 01:05:16;;;;;;;2.63;2.43;;;8.00;1.00;;;;;;5075049;28;20393;-64
2023/04/20 01:07:42;;;;;;;3.20;2.20;;;8.00;1.00;;;;;;5063030;28;20437;-64
2023/04/20 01:10:08;;;;;;;2.97;2.20;;;7.90;1.00;;;;;;5054644;28;20475;-64
2023/04/20 01:12:35;;;;;;;2.67;2.30;;;7.90;1.00;;;;;;5054148;28;20194;-64
2023/04/20 01:15:04;;;;;;;2.90;2.50;;;7.80;1.00;;;;;;5056277;28;20491;-63
2023/04/20 01:17:30;;;;;;;8.50;2.40;;;7.80;1.00;;;;;;5056459;28;20448;-64
2023/04/20 01:19:56;;;;;;;4.67;1.97;;;7.80;1.00;;;;;;5072575;28;20458;-64
2023/04/20 01:22:22;;;;;;;3.30;2.43;;;7.80;99.90;;;;;;5063662;28;20488;-64
2023/04/20 01:24:47;;;;;;;2.50;2.40;;;7.70;99.90;;;;;;5061971;28;20187;-64
2023/04/20 01:27:15;;;;;;;3.60;2.73;;;7.70;99.90;;;;;;5054737;28;20977;-64
2023/04/20 01:29:41;;;;;;;5.00;2.70;;;7.60;99.90;;;;;;5066140;28;20539;-64
2023/04/20 01:32:07;;;;;;;3.20;2.37;;;7.60;1.00;;;;;;5054969;28;20436;-66
2023/04/20 01:34:33;;;;;;;4.20;2.70;;;7.60;1.00;;;;;;5054534;28;20512;-64
2023/04/20 01:36:59;;;;;;;3.20;2.77;;;7.60;1.00;;;;;;5055246;28;20807;-64
2023/04/20 01:39:25;;;;;;;7.53;2.50;;;7.60;1.00;;;;;;5055015;28;20647;-67
2023/04/20 01:41:50;;;;;;;3.73;2.30;;;7.50;1.00;;;;;;5053721;28;20671;-67
2023/04/20 01:44:16;;;;;;;2.03;1.87;;;7.50;1.00;;;;;;5053345;28;20451;-64
2023/04/20 01:46:42;;;;;;;2.40;2.20;;;7.50;1.00;;;;;;5054846;28;20175;-64
2023/04/20 01:49:08;;;;;;;4.90;2.57;;;7.40;1.00;;;;;;5053504;28;20494;-64
2023/04/20 01:51:34;;;;;;;3.73;2.20;;;7.40;1.00;;;;;;5053038;28;20175;-64
2023/04/20 01:54:01;;;;;;;2.80;2.60;;;7.40;1.00;;;;;;5054579;28;20449;-64
2023/04/20 01:56:27;;;;;;;4.63;3.00;;;7.40;1.00;;;;;;5054648;28;20470;-65
2023/04/20 01:58:53;;;;;;;3.67;2.87;;;7.30;1.00;;;;;;5052969;28;20504;-64
2023/04/20 02:01:19;;;;;;;7.50;2.53;;;7.40;1.00;;;;;;5059353;28;20417;-65
2023/04/20 02:03:45;;;;;;;2.27;2.17;;;7.30;1.00;;;;;;5053856;28;20480;-64
2023/04/20 02:06:11;;;;;;;2.90;2.70;;;7.30;1.00;;;;;;5053885;28;20206;-64
2023/04/20 02:08:36;;;;;;;3.30;2.50;;;7.40;1.00;;;;;;5054402;28;20175;-64
2023/04/20 02:11:02;;;;;;;2.80;2.60;;;7.30;1.00;;;;;;5052676;28;20182;-67
2023/04/20 02:13:28;;;;;;;2.93;2.70;;;7.30;1.00;;;;;;5054531;28;20199;-67
2023/04/20 02:15:54;;;;;;;2.43;2.30;;;7.30;1.00;;;;;;5053812;28;20821;-66
2023/04/20 02:18:20;;;;;;;3.87;2.80;;;7.30;1.00;;;;;;5066858;28;20611;-67
2023/04/20 02:20:46;;;;;;;2.70;2.50;;;7.30;1.00;;;;;;5053139;28;20425;-67
2023/04/20 02:23:15;;;;;;;5.90;2.90;;;7.20;1.00;;;;;;5053455;28;20747;-66
2023/04/20 02:25:41;;;;;;;3.33;3.03;;;7.20;1.00;;;;;;5054032;28;20918;-64
2023/04/20 02:28:06;;;;;;;9.53;3.27;;;7.20;1.00;;;;;;5053147;28;20399;-64
2023/04/20 02:30:32;;;;;;;2.93;2.70;;;7.10;1.00;;;;;;5053256;28;20179;-64
2023/04/20 02:32:58;;;;;;;3.40;2.83;;;7.10;1.00;;;;;;5057000;28;20583;-64
2023/04/20 02:35:24;;;;;;;4.23;2.57;;;7.00;1.00;;;;;;5053840;28;20180;-64
2023/04/20 02:37:50;;;;;;;2.57;2.43;;;7.00;1.00;;;;;;5052895;28;20933;-64
2023/04/20 02:40:16;;;;;;;3.07;2.87;;;6.90;1.00;;;;;;5058397;28;20462;-64
2023/04/20 02:42:42;;;;;;;3.00;2.80;;;6.90;1.00;;;;;;5053123;28;20203;-64
2023/04/20 02:45:08;;;;;;;5.67;3.27;;;6.90;1.00;;;;;;5053745;28;20175;-64
2023/04/20 02:47:34;;;;;;;2.77;2.57;;;6.90;1.00;;;;;;5053240;28;20178;-64
2023/04/20 02:49:59;;;;;;;3.10;2.80;;;6.90;1.00;;;;;;5053219;28;20806;-64
2023/04/20 02:52:25;;;;;;;7.00;2.97;;;6.90;1.00;;;;;;5055926;28;20260;-63
2023/04/20 02:54:51;;;;;;;2.70;2.50;;;6.90;1.00;;;;;;5052961;28;20182;-64
2023/04/20 02:57:16;;;;;;;4.60;3.10;;;6.90;1.00;;;;;;5052098;28;20195;-63
2023/04/20 02:59:42;;;;;;;4.67;3.30;;;6.90;1.00;;;;;;5053543;28;20171;-64
2023/04/20 03:02:08;;;;;;;3.20;2.73;;;6.80;1.00;;;;;;5051144;28;20199;-64
2023/04/20 03:04:33;;;;;;;7.63;2.90;;;6.80;1.00;;;;;;5053541;28;20171;-64
2023/04/20 03:07:00;;;;;;;3.83;2.67;;;6.80;1.00;;;;;;5057843;28;20262;-64
2023/04/20 03:09:26;;;;;;;10.63;3.10;;;6.80;1.00;;;;;;5053231;28;20190;-64
2023/04/20 03:11:51;;;;;;;3.47;3.20;;;6.80;1.00;;;;;;5052324;28;20426;-64
2023/04/20 03:14:17;;;;;;;3.30;3.00;;;6.80;1.00;;;;;;5052381;28;20429;-64
2023/04/20 03:16:43;;;;;;;2.73;2.60;;;6.70;1.00;;;;;;5053135;28;20190;-64
2023/04/20 03:19:08;;;;;;;3.10;2.90;;;6.70;1.00;;;;;;5056331;28;20210;-64
2023/04/20 03:21:35;;;;;;;6.67;3.60;;;6.70;1.00;;;;;;5064314;28;20433;-64
2023/04/20 03:24:00;;;;;;;3.27;3.07;;;6.70;1.00;;;;;;5064016;28;20529;-64
2023/04/20 03:26:26;;;;;;;3.10;2.90;;;6.70;1.00;;;;;;5056155;28;20421;-64
2023/04/20 03:28:52;;;;;;;3.80;3.10;;;6.80;1.00;;;;;;5052957;28;20196;-64
2023/04/20 03:31:18;;;;;;;3.17;2.70;;;6.80;1.00;;;;;;5051453;28;20175;-66
2023/04/20 03:33:44;;;;;;;3.30;3.10;;;6.80;1.00;;;;;;5051936;28;20198;-64
2023/04/20 03:36:12;;;;;;;2.53;2.30;;;6.80;1.00;;;;;;5052463;28;20188;-64
2023/04/20 03:38:38;;;;;;;5.83;3.03;;;6.90;1.00;;;;;;5055509;28;20563;-64
2023/04/20 03:41:04;;;;;;;3.63;3.30;;;6.90;1.00;;;;;;5052122;28;20414;-67
2023/04/20 03:43:30;;;;;;;3.80;3.50;;;6.90;1.00;;;;;;5052174;28;20210;-67
2023/04/20 03:45:56;;;;;;;6.73;3.10;;;7.00;1.00;;;;;;5052798;28;20407;-64
2023/04/20 03:48:21;;;;;;;4.10;3.40;;;7.00;1.00;;;;;;5052427;28;20251;-65
2023/04/20 03:50:47;;;;;;;6.97;3.70;;;7.00;1.00;;;;;;5051035;28;20268;-64
2023/04/20 03:53:13;;;;;;;5.27;3.50;;;7.00;1.00;;;;;;5051676;28;20210;-64
2023/04/20 03:55:38;;;;;;;5.07;2.83;;;7.00;1.00;;;;;;5052659;28;20644;-67
2023/04/20 03:58:05;;;;;;;3.30;2.93;;;7.00;1.00;;;;;;5051572;28;20658;-67
2023/04/20 04:00:31;;;;;;;3.10;2.90;;;7.00;1.00;;;;;;5051937;28;20167;-67
2023/04/20 04:02:57;;;;;;;8.23;3.67;;;7.10;1.00;;;;;;5052180;28;20452;-64
2023/04/20 04:05:24;;;;;;;3.50;3.20;;;7.00;1.00;;;;;;5052278;28;20405;-67
2023/04/20 04:07:50;;;;;;;5.07;3.43;;;7.10;1.00;;;;;;5051084;28;20183;-67
2023/04/20 04:10:17;;;;;;;4.00;3.60;;;7.10;1.00;;;;;;5052017;28;20436;-64
2023/04/20 04:12:44;;;;;;;4.10;3.13;;;7.10;1.00;;;;;;5054673;28;20473;-64
2023/04/20 04:15:11;;;;;;;3.43;3.10;;;7.20;1.00;;;;;;5056705;28;20493;-64
2023/04/20 04:17:37;;;;;;;4.43;4.03;;;7.20;1.00;;;;;;5055899;28;20457;-64
2023/04/20 04:20:10;;;;;;;5.20;3.00;;;7.20;1.00;;;;;;5056095;28;20413;-65
2023/04/20 04:22:35;;;;;;;3.70;2.90;;;7.20;1.00;;;;;;5056325;28;20441;-64
2023/04/20 04:25:01;;;;;;;3.67;3.37;;;7.20;1.00;;;;;;5055978;28;20470;-64
2023/04/20 04:27:28;;;;;;;6.13;3.47;;;7.20;1.00;;;;;;5056429;28;20178;-65
2023/04/20 04:29:55;;;;;;;3.63;2.90;;;7.20;1.00;;;;;;5055420;28;20178;-65
2023/04/20 04:32:23;;;;;;;4.43;3.47;;;7.20;1.00;;;;;;5054430;28;20464;-65
2023/04/20 04:34:49;;;;;;;8.17;3.53;;;7.20;1.00;;;;;;5056174;28;20398;-65
2023/04/20 04:37:15;;;;;;;4.80;3.50;;;7.20;1.00;;;;;;5055382;28;20453;-65
2023/04/20 04:39:40;;;;;;;3.60;3.30;;;7.30;1.00;;;;;;5055636;28;20376;-65
2023/04/20 04:42:06;;;;;;;4.60;3.17;;;7.30;1.00;;;;;;5056840;28;20904;-65
2023/04/20 04:44:32;;;;;;;4.10;3.07;;;7.30;1.00;;;;;;5055593;28;20175;-65
2023/04/20 04:46:58;;;;;;;3.90;3.60;;;7.30;1.00;;;;;;5059142;28;20662;-67
2023/04/20 04:49:24;;;;;;;3.40;3.10;;;7.30;1.00;;;;;;5055918;28;20401;-65
2023/04/20 04:51:49;;;;;;;5.63;3.53;;;7.30;1.00;;;;;;5054363;28;20210;-65
2023/04/20 04:54:15;;;;;;;5.90;2.67;;;7.30;1.00;;;;;;5055174;28;20190;-65
2023/04/20 04:56:41;;;;;;;6.70;3.23;;;7.30;1.00;;;;;;5055061;28;20555;-65
2023/04/20 04:59:06;;;;;;;5.60;4.00;;;7.30;1.00;;;;;;5058327;28;20176;-65
2023/04/20 05:01:32;;;;;;;5.23;3.57;;;7.30;1.00;;;;;;5065119;28;20190;-65
2023/04/20 05:03:58;;;;;;;7.77;2.97;;;7.40;1.00;;;;;;5067867;28;20175;-64
2023/04/20 05:06:23;;;;;;;3.93;3.17;;;7.30;1.00;;;;;;5070696;28;20174;-67
2023/04/20 05:08:49;;;;;;;4.83;3.53;;;7.40;1.00;;;;;;5055568;28;20198;-64
2023/04/20 05:11:15;;;;;;;3.43;2.97;;;7.40;1.00;;;;;;5054684;28;20182;-67
2023/04/20 05:13:40;;;;;;;3.77;3.47;;;7.40;1.00;;;;;;5061413;28;20217;-67
2023/04/20 05:16:06;;;;;;;6.63;2.60;;;7.50;1.00;;;;;;5059446;28;20175;-65
2023/04/20 05:18:32;;;;;;;9.03;7.43;;;7.60;1.00;;;;;;5057241;28;20202;-65
2023/04/20 05:20:58;;;;;;;3.70;3.40;;;7.60;1.00;;;;;;5055758;28;20391;-65
2023/04/20 05:23:24;;;;;;;6.30;4.17;;;7.60;1.00;;;;;;5060207;28;20529;-67
2023/04/20 05:25:49;;;;;;;5.63;3.80;;;7.60;1.00;;;;;;5054648;28;20178;-67
2023/04/20 05:28:15;;;;;;;3.23;2.90;;;7.60;1.00;;;;;;5064467;28;20178;-64
2023/04/20 05:30:41;;;;;;;3.50;3.30;;;7.60;1.00;;;;;;5053732;28;20678;-65
2023/04/20 05:33:07;;;;;;;8.23;3.47;;;7.60;1.00;;;;;;5055121;28;20525;-67
2023/04/20 05:35:33;;;;;;;4.40;3.40;;;7.60;1.00;;;;;;5053505;28;20421;-64
2023/04/20 05:38:01;;;;;;;4.03;3.73;;;7.60;1.00;;;;;;5054920;28;20203;-65
2023/04/20 05:40:27;;;;;;;5.73;3.17;;;7.60;1.00;;;;;;5053140;28;20640;-67
2023/04/20 05:42:53;;;;;;;7.10;3.70;;;7.50;1.00;;;;;;5054724;28;20514;-66
2023/04/20 05:45:18;;;;;;;9.17;4.30;;;7.60;1.00;;;;;;5054404;28;20246;-66
2023/04/20 05:47:55;;;;;;;5.43;3.87;;;7.60;1.00;;;;;;5069070;28;20572;-69
2023/04/20 05:50:21;;;;;;;5.23;3.63;;;7.70;1.00;;;;;;5056540;28;20167;-65
2023/04/20 05:52:48;;;;;;;3.10;2.90;;;7.70;1.00;;;;;;5067746;28;20475;-64
2023/04/20 05:55:13;;;;;;;3.53;2.63;;;7.70;1.00;;;;;;5053668;28;20407;-64
2023/04/20 05:57:41;;;;;;;6.20;3.13;;;7.70;1.00;;;;;;5062890;28;20843;-65
2023/04/20 06:00:12;;;;;;;3.93;3.60;;;7.70;1.00;;;;;;5056762;28;20180;-65
2023/04/20 06:02:38;;;;;;;3.97;3.57;;;7.70;1.00;;;;;;5057337;28;20496;-67
2023/04/20 06:05:04;;;;;;;3.87;3.50;;;7.70;1.00;;;;;;5054637;28;20396;-66
2023/04/20 06:07:30;;;;;;;4.77;4.27;;;7.80;1.00;;;;;;5053918;28;20828;-65
2023/04/20 06:09:56;;;;;;;3.90;3.60;;;7.90;1.00;;;;;;5053193;28;20521;-65
2023/04/20 06:12:22;;;;;;;6.03;3.83;;;7.90;1.00;;;;;;5053350;28;20195;-65
2023/04/20 06:14:48;;;;;;;6.63;3.97;;;7.90;1.00;;;;;;5053977;28;20426;-65
2023/04/20 06:17:14;;;;;;;3.93;2.90;;;7.90;1.00;;;;;;5053231;28;20445;-65
2023/04/20 06:19:39;;;;;;;3.27;2.87;;;7.90;1.00;;;;;;5053695;28;20451;-65
2023/04/20 06:22:08;;;;;;;6.20;3.43;;;7.80;1.00;;;;;;5053265;28;20221;-65
2023/04/20 06:24:34;;;;;;;4.80;4.10;;;7.90;1.00;;;;;;5053528;28;20268;-65
2023/04/20 06:27:00;;;;;;;5.17;3.90;;;7.90;1.00;;;;;;5053009;28;20469;-65
2023/04/20 06:29:27;;;;;;;5.13;3.40;;;7.90;1.00;;;;;;5051945;28;20443;-65
2023/04/20 06:31:52;;;;;;;4.90;3.60;;;7.90;1.00;;;;;;5065225;28;20423;-65
2023/04/20 06:34:18;;;;;;;10.60;3.00;;;8.00;1.00;;;;;;5053766;28;20418;-65
2023/04/20 06:36:44;;;;;;;4.00;3.60;;;8.00;1.00;;;;;;5062816;28;20198;-65
2023/04/20 06:39:12;;;;;;;5.93;3.60;;;8.00;1.00;;;;;;5052514;28;20248;-65
2023/04/20 06:41:38;;;;;;;3.73;3.30;;;8.10;1.00;;;;;;5052939;28;20163;-64
2023/04/20 06:44:05;;;;;;;6.30;4.07;;;8.10;1.00;;;;;;5054708;28;21054;-64
2023/04/20 06:46:31;;;;;;;5.70;3.53;;;8.10;1.00;;;;;;5055585;28;20171;-68
2023/04/20 06:48:58;;;;;;;5.80;4.67;;;8.10;1.00;;;;;;5065947;28;20422;-67
2023/04/20 06:51:25;;;;;;;5.73;3.60;;;8.10;1.00;;;;;;5052743;28;20397;-67
2023/04/20 06:53:51;;;;;;;5.37;3.80;;;8.10;1.00;;;;;;5053217;28;20422;-65
2023/04/20 06:56:16;;;;;;;9.00;4.70;;;8.10;1.00;;;;;;5053670;28;20401;-67
2023/04/20 06:58:42;;;;;;;7.40;3.87;;;8.10;1.00;;;;;;5053400;28;20285;-67
2023/04/20 07:01:08;;;;;;;7.13;3.60;;;8.10;1.00;;;;;;5052413;28;20163;-67
2023/04/20 07:03:34;;;;;;;5.30;3.53;;;8.20;1.00;;;;;;5052833;28;20187;-65
2023/04/20 07:06:00;;;;;;;9.33;3.83;;;8.20;1.00;;;;;;5053269;28;20163;-67
2023/04/20 07:08:25;;;;;;;4.93;3.63;;;8.20;1.00;;;;;;5063937;28;20439;-67
2023/04/20 07:10:51;;;;;;;4.67;3.63;;;8.30;1.00;;;;;;5072616;28;20292;-68
2023/04/20 07:13:17;;;;;;;3.53;2.70;;;8.30;1.00;;;;;;5071848;28;20621;-66
2023/04/20 07:15:44;;;;;;;5.20;4.13;;;8.40;1.00;;;;;;5073119;28;20177;-65
2023/04/20 07:18:10;;;;;;;5.23;4.30;;;8.40;1.00;;;;;;5072308;28;20202;-65
2023/04/20 07:20:36;;;;;;;4.27;3.87;;;8.30;1.00;;;;;;5071260;28;20420;-67
2023/04/20 07:23:01;;;;;;;4.27;3.87;;;8.40;1.00;;;;;;5071846;28;20852;-67
2023/04/20 07:25:28;;;;;;;6.57;4.20;;;8.50;1.00;;;;;;5073186;28;20167;-67
2023/04/20 07:27:54;;;;;;;6.40;3.63;;;8.50;1.00;;;;;;5073156;28;20193;-67
2023/04/20 07:30:19;;;;;;;7.60;3.67;;;8.50;1.00;;;;;;5072125;28;20436;-67
2023/04/20 07:32:46;;;;;;;3.70;3.40;;;8.50;1.00;;;;;;5056344;28;20760;-65
2023/04/20 07:35:11;;;;;;;8.33;4.03;;;8.40;1.00;;;;;;5053003;28;20233;-67
2023/04/20 07:37:37;;;;;;;4.87;3.63;;;8.40;1.00;;;;;;5052905;28;20949;-67
2023/04/20 07:40:06;;;;;;;5.10;4.20;;;8.40;1.00;;;;;;5052681;28;20260;-67
2023/04/20 07:42:35;;;;;;;5.40;3.97;;;8.40;1.00;;;;;;5052513;28;20283;-67
2023/04/20 07:45:05;;;;;;;8.23;4.60;;;8.40;1.00;;;;;;5051388;28;20439;-65
2023/04/20 07:47:33;;;;;;;9.40;4.77;;;8.30;1.00;;;;;;5067597;28;20527;-65
2023/04/20 07:49:58;;;;;;;6.27;4.23;;;8.20;1.00;;;;;;5076570;28;20388;-67
2023/04/20 07:52:25;;;;;;;7.63;4.47;;;8.20;1.00;;;;;;5075240;28;20511;-67
2023/04/20 07:54:52;;;;;;;4.27;3.70;;;8.20;1.00;;;;;;5077085;28;20172;-67
2023/04/20 07:57:19;;;;;;;11.03;4.00;;;8.30;1.00;;;;;;5055670;28;20515;-65
2023/04/20 07:59:45;;;;;;;7.60;4.33;;;8.20;1.00;;;;;;5059192;28;20508;-65
2023/04/20 08:02:11;;;;;;;4.63;4.17;;;8.20;1.00;;;;;;5067279;28;20503;-67
2023/04/20 08:04:37;;;;;;;5.27;3.90;;;8.20;1.00;;;;;;5054563;28;20264;-67
2023/04/20 08:07:03;;;;;;;9.43;5.03;;;8.20;1.00;;;;;;5057248;28;20174;-67
2023/04/20 08:09:28;;;;;;;4.67;4.17;;;8.20;1.00;;;;;;5074056;28;20462;-67
2023/04/20 08:11:55;;;;;;;5.47;4.97;;;8.10;1.00;;;;;;5050424;28;20824;-67
2023/04/20 08:14:21;;;;;;;8.30;4.70;;;8.10;1.00;;;;;;5058745;28;20261;-68
2023/04/20 08:16:46;;;;;;;6.93;4.17;;;8.10;1.00;;;;;;5064428;28;20528;-65
2023/04/20 08:19:12;;;;;;;4.60;3.80;;;8.10;1.00;;;;;;5059638;28;20182;-67
2023/04/20 08:21:39;;;;;;;7.27;4.20;;;8.10;1.00;;;;;;5059096;28;20183;-67
2023/04/20 08:24:06;;;;;;;5.40;4.73;;;8.10;1.00;;;;;;5061571;28;20175;-68
2023/04/20 08:26:32;;;;;;;6.00;4.40;;;8.20;1.00;;;;;;5065703;28;20415;-68
2023/04/20 08:28:59;;;;;;;10.00;4.73;;;8.30;1.00;;;;;;5055844;28;20407;-68
2023/04/20 08:31:25;;;;;;;7.40;5.50;;;8.40;1.00;;;;;;5054269;28;20532;-68
2023/04/20 08:33:51;;;;;;;5.30;4.80;;;8.40;1.00;;;;;;5054827;28;20453;-68
2023/04/20 08:36:17;;;;;;;5.10;4.60;;;8.40;1.00;;;;;;5060077;28;20304;-68
2023/04/20 08:38:43;;;;;;;6.70;4.23;;;8.40;1.00;;;;;;5071048;28;20211;-69
2023/04/20 08:41:12;;;;;;;5.80;5.00;;;8.30;1.00;;;;;;5067835;28;20410;-68
2023/04/20 08:43:38;;;;;;;8.43;5.17;;;8.20;1.00;;;;;;5059658;28;20447;-66
2023/04/20 08:46:04;;;;;;;13.77;5.70;;;8.20;1.00;;;;;;5064518;28;20436;-67
2023/04/20 08:48:35;;;;;;;6.10;5.27;;;8.20;1.00;;;;;;5088894;28;20876;-67
2023/04/20 08:51:04;;;;;;;7.10;5.07;;;8.20;1.00;;;;;;5061256;28;21003;-64
2023/04/20 08:53:31;;;;;;;6.80;5.60;;;8.20;1.00;;;;;;5058159;28;20494;-67
2023/04/20 08:55:57;;;;;;;6.03;4.50;;;8.20;1.00;;;;;;5062494;28;20490;-65
2023/04/20 08:58:31;;;;;;;6.90;4.70;;;8.20;1.00;;;;;;5053420;28;20457;-67
2023/04/20 09:00:59;;;;;;;7.30;4.60;;;8.20;1.00;;;;;;5053537;28;20474;-66
2023/04/20 09:03:41;;;;;;;5.63;5.13;;;8.10;1.00;;;;;;5064960;28;20496;-65
2023/04/20 09:06:15;;;;;;;8.20;5.37;;;8.10;1.00;;;;;;5054110;28;20440;-68
2023/04/20 09:08:42;;;;;;;10.43;5.67;;;8.10;1.00;;;;;;5059243;28;20480;-68
2023/04/20 09:11:23;;;;;;;13.70;5.53;;;8.20;1.00;;;;;;5069088;28;20555;-68
2023/04/20 09:14:05;;;;;;;8.00;5.33;;;8.30;1.00;;;;;;5056858;28;20447;-66
2023/04/20 09:16:31;;;;;;;13.33;5.40;;;8.30;1.00;;;;;;5052209;28;20438;-65
2023/04/20 09:18:58;;;;;;;6.23;5.30;;;8.30;1.00;;;;;;5055549;28;20430;-69
2023/04/20 09:21:26;;;;;;;18.43;5.83;;;8.30;1.00;;;;;;5053702;28;20422;-68
2023/04/20 09:24:19;;;;;;;9.23;6.17;;;8.40;1.00;;;;;;5053700;28;20439;-65
2023/04/20 09:26:46;;;;;;;9.40;5.40;;;8.50;1.00;;;;;;5060051;28;20581;-69
2023/04/20 09:29:20;;;;;;;14.70;5.47;;;8.60;1.00;;;;;;5072194;28;20728;-68
2023/04/20 09:31:47;;;;;;;13.30;5.60;;;8.80;1.00;;;;;;5071350;28;20410;-68
2023/04/20 09:34:13;;;;;;;12.43;6.27;;;9.00;1.00;;;;;;5071091;28;20403;-68
2023/04/20 09:36:39;;;;;;;7.70;6.30;;;9.10;1.00;;;;;;5063534;28;20414;-68
2023/04/20 09:39:14;;;;;;;8.73;5.83;;;9.30;1.00;;;;;;5052761;28;20921;-69
2023/04/20 09:41:41;;;;;;;7.80;6.03;;;9.50;1.00;;;;;;5063375;28;20403;-69
2023/04/20 09:44:08;;;;;;;12.33;5.90;;;9.60;1.00;;;;;;5053029;28;20388;-69
2023/04/20 09:46:35;;;;;;;11.30;6.23;;;9.60;1.00;;;;;;5073389;28;20454;-69
2023/04/20 09:49:04;;;;;;;12.53;6.60;;;9.60;1.00;;;;;;5054042;28;20426;-69
2023/04/20 09:51:35;;;;;;;16.67;6.63;;;9.60;1.00;;;;;;5054183;28;20445;-69
2023/04/20 15:05:47;;;;;;;10.10;6.43;;;15.30;1.00;;;;;;5043866;28;20626;-71
2023/04/20 15:08:13;;;;;;;15.83;8.67;;;15.00;1.00;;;;;;5041144;28;20776;-70
2023/04/20 15:10:39;;;;;;;13.03;8.90;;;14.90;1.00;;;;;;5039166;28;20202;-71
2023/04/20 15:13:05;;;;;;;14.50;9.17;;;15.10;1.00;;;;;;5043315;28;20207;-70
2023/04/20 15:15:32;;;;;;;14.10;8.50;;;15.40;1.00;;;;;;5030711;28;20643;-70
2023/04/20 15:17:57;;;;;;;12.77;7.80;;;15.70;1.00;;;;;;5039552;28;20518;-71
2023/04/20 15:20:23;;;;;;;7.90;7.10;;;16.10;1.00;;;;;;5028135;28;20402;-71
2023/04/20 15:22:49;;;;;;;6.53;5.67;;;16.20;1.00;;;;;;5029382;28;20251;-71
2023/04/20 15:25:15;;;;;;;10.33;7.10;;;15.70;1.00;;;;;;5030425;28;20187;-70
2023/04/20 15:27:40;;;;;;;11.20;7.87;;;15.10;1.00;;;;;;5028973;28;20175;-70
2023/04/20 15:30:07;;;;;;;10.63;8.00;;;15.10;1.00;;;;;;5027894;28;20529;-70
2023/04/20 15:32:33;;;;;;;13.70;7.70;;;15.20;1.00;;;;;;5029356;28;20287;-70
2023/04/20 15:34:59;;;;;;;17.87;8.80;;;15.40;1.00;;;;;;5038588;28;20874;-70
2023/04/20 15:37:25;;;;;;;11.03;7.77;;;15.50;1.00;;;;;;5043482;28;20496;-70
2023/04/20 15:39:51;;;;;;;15.63;7.97;;;15.60;1.00;;;;;;5028526;28;20780;-70
2023/04/20 15:42:17;;;;;;;10.70;8.43;;;15.70;1.00;;;;;;5027778;28;20192;-69
2023/04/20 15:44:43;;;;;;;11.23;8.20;;;15.70;1.00;;;;;;5030871;28;20484;-70
2023/04/20 15:47:09;;;;;;;13.97;7.90;;;15.90;1.00;;;;;;5036971;28;20812;-69
2023/04/20 15:49:39;;;;;;;8.50;7.40;;;16.10;1.00;;;;;;5035646;28;20640;-69
2023/04/20 15:52:07;;;;;;;14.40;7.43;;;16.20;1.00;;;;;;5044203;28;20961;-68
2023/04/20 15:54:33;;;;;;;14.97;8.30;;;15.90;1.00;;;;;;5034111;28;20477;-68
2023/04/20 15:57:00;;;;;;;12.00;7.60;;;15.60;1.00;;;;;;5048377;28;20440;-68
2023/04/20 15:59:25;;;;;;;11.13;7.17;;;15.30;1.00;;;;;;5038030;28;20426;-68
2023/04/20 16:01:52;;;;;;;9.67;7.83;;;14.80;1.00;;;;;;5040584;28;20459;-68
2023/04/20 16:04:17;;;;;;;11.13;7.47;;;14.80;1.00;;;;;;5036358;28;20206;-68
2023/04/20 16:06:43;;;;;;;8.77;7.87;;;14.70;1.00;;;;;;5037605;28;20536;-68
2023/04/20 16:09:09;;;;;;;10.67;8.20;;;14.40;1.00;;;;;;5044142;28;20528;-72
2023/04/20 16:11:35;;;;;;;16.87;8.23;;;13.80;1.00;;;;;;5042330;28;20521;-70
2023/04/20 16:14:00;;;;;;;11.07;7.00;;;13.50;1.00;;;;;;5043204;28;20317;-68
2023/04/20 16:16:26;;;;;;;11.70;8.77;;;13.40;1.00;;;;;;5021042;28;20663;-70
2023/04/20 16:18:53;;;;;;;14.10;7.80;;;13.20;1.00;;;;;;5026202;28;20180;-71
2023/04/20 16:21:19;;;;;;;13.07;8.27;;;12.90;1.00;;;;;;5031456;28;20214;-70
2023/04/20 16:23:45;;;;;;;11.57;7.43;;;12.70;1.00;;;;;;5030228;28;20445;-70
2023/04/20 16:26:10;;;;;;;9.97;7.47;;;12.50;1.00;;;;;;5028101;28;20195;-71
2023/04/20 16:28:36;;;;;;;10.50;8.33;;;12.40;1.00;;;;;;5032642;28;20641;-70
2023/04/20 16:31:02;;;;;;;14.90;9.27;;;12.30;1.00;;;;;;5034697;28;20501;-71
2023/04/20 16:33:29;;;;;;;11.50;8.40;;;12.20;1.00;;;;;;5028061;28;20420;-70
2023/04/20 16:35:54;;;;;;;13.73;8.60;;;12.20;1.00;;;;;;5018029;28;20411;-70
2023/04/20 16:38:21;;;;;;;9.43;7.70;;;12.10;1.00;;;;;;5030909;28;20401;-69
2023/04/20 16:40:47;;;;;;;12.00;9.03;;;12.00;1.00;;;;;;5032983;28;20225;-70
2023/04/20 16:43:12;;;;;;;14.90;9.27;;;12.00;1.00;;;;;;5021633;28;20420;-70
2023/04/20 16:45:38;;;;;;;12.23;8.60;;;12.00;1.00;;;;;;5033325;28;20207;-70
2023/04/20 16:48:04;;;;;;;16.47;8.67;;;12.00;1.00;;;;;;5031367;28;20202;-70
2023/04/20 16:50:30;;;;;;;17.50;8.07;;;11.90;1.00;;;;;;5032278;28;20171;-70
2023/04/20 16:52:56;;;;;;;10.07;7.87;;;11.60;1.00;;;;;;5023383;28;20220;-70
2023/04/20 16:55:22;;;;;;;18.43;10.17;;;11.50;1.00;;;;;;5015314;28;20412;-70
2023/04/20 16:57:48;;;;;;;13.23;8.57;;;11.40;1.00;;;;;;5033440;28;20187;-70
2023/04/20 17:00:14;;;;;;;20.03;9.33;;;11.40;1.00;;;;;;5032773;28;21048;-71
2023/04/20 17:02:40;;;;;;;13.03;8.93;;;11.50;1.00;;;;;;5032823;28;20890;-71
2023/04/20 17:05:06;;;;;;;12.23;7.53;;;11.50;1.00;;;;;;5033350;28;20435;-70
2023/04/20 17:07:32;;;;;;;11.50;8.10;;;11.50;1.00;;;;;;5032719;28;20597;-70
2023/04/20 17:09:58;;;;;;;15.33;8.73;;;11.30;1.00;;;;;;5033001;28;20451;-68
2023/04/20 17:12:24;;;;;;;13.50;9.53;;;11.20;1.00;;;;;;5027670;28;20420;-70
2023/04/20 17:14:50;;;;;;;11.87;7.47;;;11.10;1.00;;;;;;5013022;28;20418;-70
2023/04/20 17:17:15;;;;;;;17.23;9.30;;;11.00;1.00;;;;;;5024520;28;20176;-70
2023/04/20 17:19:41;;;;;;;25.47;9.00;;;10.90;1.00;;;;;;5032885;28;20271;-70
2023/04/20 17:22:07;;;;;;;18.77;9.17;;;10.90;1.00;;;;;;5015517;28;20294;-73
2023/04/20 17:24:33;;;;;;;13.00;8.70;;;10.90;1.00;;;;;;5018745;28;20334;-70
2023/04/20 17:27:00;;;;;;;14.20;7.80;;;10.80;1.00;;;;;;5033400;28;20174;-70
2023/04/20 17:29:26;;;;;;;11.77;8.00;;;10.80;1.00;;;;;;5032211;28;20453;-70
2023/04/20 17:31:54;;;;;;;14.83;10.13;;;10.70;1.00;;;;;;5016336;28;20494;-70
2023/04/20 17:34:20;;;;;;;13.30;8.17;;;10.50;1.00;;;;;;5024008;28;20434;-69
2023/04/20 17:36:45;;;;;;;12.33;9.77;;;10.50;1.00;;;;;;5018148;28;20951;-70
2023/04/20 17:39:12;;;;;;;17.00;9.47;;;10.40;1.00;;;;;;5031123;28;20498;-70
2023/04/20 17:41:38;;;;;;;18.70;8.57;;;10.30;1.00;;;;;;5032946;28;20259;-69
2023/04/20 17:44:04;;;;;;;7.87;6.00;;;10.30;1.00;;;;;;5032675;28;20525;-70
2023/04/20 17:46:29;;;;;;;12.00;8.70;;;10.20;1.00;;;;;;5029824;28;20188;-71
2023/04/20 17:48:55;;;;;;;15.97;8.70;;;10.20;1.00;;;;;;5021031;28;20233;-70
2023/04/20 17:51:21;;;;;;;19.40;8.40;;;10.20;1.00;;;;;;5027601;28;20238;-71
2023/04/20 17:53:47;;;;;;;13.20;8.57;;;10.10;1.00;;;;;;5032738;28;20537;-71
2023/04/20 17:56:13;;;;;;;17.40;9.10;;;10.10;1.00;;;;;;5029437;28;20509;-71
2023/04/20 17:58:38;;;;;;;17.27;8.63;;;9.90;1.00;;;;;;5020733;28;20193;-70
2023/04/20 18:01:04;;;;;;;12.47;9.20;;;9.90;1.00;;;;;;5027755;28;20198;-71
2023/04/20 18:03:30;;;;;;;15.23;8.50;;;9.80;1.00;;;;;;5033563;28;20191;-70
2023/04/20 18:05:55;;;;;;;15.50;8.40;;;9.70;1.00;;;;;;5032402;28;20177;-70
2023/04/20 18:08:22;;;;;;;9.47;8.00;;;9.80;1.00;;;;;;5023445;28;20179;-70
2023/04/20 18:10:48;;;;;;;17.27;8.70;;;9.70;1.00;;;;;;5021678;28;20203;-71